Time;durP1;ratioP1;P1;durP2;ratioP2;P2;SDS_P1;SDS_P2;PMS_P1;PMS_P2;Temp;Humidity;BMP_temperature;BMP_pressure;BME280_temperature;BME280_humidity;BME280_pressure;Samples;Min_cycle;Max_cycle;Signal;HPM_P1;HPM_P2
2022/01/10 00:01:04;;;;;;;7.38;3.70;;;;;;;-0.40;87.38;97637.91;2590901;28;20721;-77
2022/01/10 00:02:20;;;;;;;8.38;4.10;;;;;;;-0.39;87.26;97637.03;2590563;28;20057;-78
2022/01/10 00:03:35;;;;;;;5.93;3.70;;;;;;;-0.40;87.15;97638.75;2590404;28;20057;-78
2022/01/10 00:04:51;;;;;;;6.32;3.42;;;;;;;-0.40;87.00;97640.47;2591014;28;20481;-77
2022/01/10 00:06:06;;;;;;;8.10;3.85;;;;;;;-0.38;87.19;97641.31;2590743;28;20045;-78
2022/01/10 00:07:22;;;;;;;7.45;3.72;;;;;;;-0.37;87.17;97641.31;2590442;28;20201;-78
2022/01/10 00:08:37;;;;;;;8.45;3.85;;;;;;;-0.35;86.98;97646.47;2590567;28;20052;-78
2022/01/10 00:09:54;;;;;;;7.65;3.75;;;;;;;-0.34;86.92;97640.47;2589249;28;20397;-78
2022/01/10 00:11:09;;;;;;;10.20;3.60;;;;;;;-0.36;87.22;97648.16;2590328;28;20123;-79
2022/01/10 00:12:25;;;;;;;10.55;4.07;;;;;;;-0.35;87.00;97649.03;2590816;28;20077;-77
2022/01/10 00:13:41;;;;;;;6.70;3.88;;;;;;;-0.33;87.05;97652.47;2590594;28;20459;-77
2022/01/10 00:14:56;;;;;;;7.47;3.75;;;;;;;-0.30;87.02;97647.34;2590230;28;20447;-77
2022/01/10 00:16:12;;;;;;;9.15;3.78;;;;;;;-0.29;86.74;97647.34;2590338;28;20421;-78
2022/01/10 00:17:28;;;;;;;7.60;4.07;;;;;;;-0.30;87.05;97653.34;2590445;28;20077;-78
2022/01/10 00:18:43;;;;;;;8.70;3.97;;;;;;;-0.28;87.07;97655.91;2590769;28;20213;-78
2022/01/10 00:19:59;;;;;;;7.47;3.35;;;;;;;-0.25;87.06;97655.06;2590298;28;20065;-78
2022/01/10 00:21:15;;;;;;;9.77;3.58;;;;;;;-0.25;86.85;97655.06;2590081;28;20046;-78
2022/01/10 00:22:32;;;;;;;7.03;3.65;;;;;;;-0.25;86.89;97657.63;2590748;28;20042;-78
2022/01/10 00:23:47;;;;;;;9.82;3.78;;;;;;;-0.21;86.90;97657.66;2590352;28;20132;-78
2022/01/10 00:25:04;;;;;;;8.73;4.45;;;;;;;-0.22;86.70;97655.94;2590718;28;20512;-78
2022/01/10 00:26:20;;;;;;;7.65;3.55;;;;;;;-0.20;86.51;97653.38;2590515;28;20053;-78
2022/01/10 00:27:35;;;;;;;7.85;3.88;;;;;;;-0.20;86.57;97658.53;2590591;28;20535;-78
2022/01/10 00:28:51;;;;;;;11.18;3.50;;;;;;;-0.19;86.46;97655.94;2590680;28;20104;-78
2022/01/10 00:30:09;;;;;;;8.48;3.33;;;;;;;-0.18;86.54;97661.97;2590579;28;20412;-77
2022/01/10 00:31:24;;;;;;;7.45;3.40;;;;;;;-0.16;86.33;97662.81;2590429;28;20121;-77
2022/01/10 00:32:42;;;;;;;6.40;3.13;;;;;;;-0.12;86.19;97661.97;2590783;28;20046;-77
2022/01/10 00:33:58;;;;;;;8.05;3.60;;;;;;;-0.11;86.16;97662.84;2590513;28;20099;-77
2022/01/10 00:35:14;;;;;;;8.05;3.30;;;;;;;-0.08;86.04;97667.97;2590553;28;20440;-78
2022/01/10 00:36:30;;;;;;;9.38;3.70;;;;;;;-0.06;86.28;97668.84;2590415;28;20054;-77
2022/01/10 00:37:46;;;;;;;8.00;3.40;;;;;;;-0.04;85.98;97667.13;2590711;28;20401;-78
2022/01/10 00:39:02;;;;;;;6.50;3.00;;;;;;;-0.02;85.91;97674.00;2590474;28;20389;-77
2022/01/10 00:40:19;;;;;;;6.07;3.30;;;;;;;0.01;85.55;97677.44;2590368;28;20049;-77
2022/01/10 00:41:34;;;;;;;4.78;3.00;;;;;;;0.01;85.75;97673.16;2590590;28;20060;-78
2022/01/10 00:42:57;;;;;;;6.18;3.53;;;;;;;0.03;85.61;97678.28;2590643;28;20133;-78
2022/01/10 00:44:14;;;;;;;8.45;2.95;;;;;;;0.03;85.67;97684.31;2590527;28;20104;-77
2022/01/10 00:45:29;;;;;;;9.27;3.80;;;;;;;0.02;85.65;97685.16;2590459;28;20050;-77
2022/01/10 00:46:45;;;;;;;8.93;3.30;;;;;;;0.01;85.92;97685.16;2589964;28;20069;-79
2022/01/10 00:48:01;;;;;;;6.43;3.10;;;;;;;-0.03;86.32;97682.56;2590353;28;20046;-78
2022/01/10 00:49:16;;;;;;;16.02;5.65;;;;;;;-0.08;86.84;97691.13;2590482;28;20424;-78
2022/01/10 00:50:33;;;;;;;17.40;7.28;;;;;;;-0.15;87.09;97690.25;2590443;28;20088;-77
2022/01/10 00:51:49;;;;;;;10.88;5.93;;;;;;;-0.09;86.77;97692.84;2590411;28;20497;-77
2022/01/10 00:53:04;;;;;;;10.02;4.85;;;;;;;-0.13;86.64;97695.44;2590267;28;20108;-78
2022/01/10 00:54:20;;;;;;;20.15;8.70;;;;;;;-0.17;86.69;97690.25;2590400;28;20241;-78
2022/01/10 00:55:35;;;;;;;20.08;8.55;;;;;;;-0.17;86.51;97694.56;2590346;28;20054;-78
2022/01/10 00:56:51;;;;;;;23.73;9.75;;;;;;;-0.18;86.55;97696.25;2590139;28;20517;-78
2022/01/10 00:58:07;;;;;;;19.33;8.18;;;;;;;-0.22;86.81;97696.22;2590411;28;20668;-77
2022/01/10 00:59:22;;;;;;;16.95;7.65;;;;;;;-0.29;87.13;97703.06;2589780;28;20046;-77
2022/01/10 01:00:38;;;;;;;20.60;8.60;;;;;;;-0.33;87.32;97704.78;2590463;28;20555;-78
2022/01/10 01:01:54;;;;;;;19.20;7.80;;;;;;;-0.35;87.12;97714.22;2590341;28;20382;-78
2022/01/10 01:03:09;;;;;;;12.57;6.40;;;;;;;-0.37;87.53;97705.59;2589828;28;20065;-77
2022/01/10 01:04:25;;;;;;;15.30;7.05;;;;;;;-0.37;87.47;97713.31;2590398;28;20489;-77
2022/01/10 01:05:43;;;;;;;12.32;6.25;;;;;;;-0.35;87.49;97716.78;2590093;28;20081;-78
2022/01/10 01:06:58;;;;;;;13.57;5.72;;;;;;;-0.34;87.46;97717.63;2589961;28;20041;-77
2022/01/10 01:08:14;;;;;;;12.95;5.28;;;;;;;-0.34;87.58;97715.06;2590338;28;20050;-77
2022/01/10 01:09:31;;;;;;;11.15;5.50;;;;;;;-0.31;87.35;97718.50;2590632;28;20049;-78
2022/01/10 01:14:50;;;;;;;10.63;4.85;;;;;;;-0.24;87.30;97729.69;2590023;28;20100;-78
2022/01/10 01:20:27;;;;;;;15.52;7.60;;;;;;;-0.19;87.40;97730.56;2590078;28;20054;-77
2022/01/10 01:24:53;;;;;;;14.02;7.30;;;;;;;-0.24;87.47;97744.25;2590292;28;20080;-77
2022/01/10 01:26:11;;;;;;;16.33;7.97;;;;;;;-0.24;87.43;97739.09;2590188;28;20054;-77
2022/01/10 01:27:27;;;;;;;15.13;6.75;;;;;;;-0.26;87.51;97743.38;2590066;28;20050;-77
2022/01/10 01:28:43;;;;;;;16.73;7.55;;;;;;;-0.29;87.24;97749.38;2590313;28;20108;-78
2022/01/10 01:29:59;;;;;;;15.20;6.63;;;;;;;-0.27;87.34;97755.41;2590325;28;20088;-78
2022/01/10 01:31:14;;;;;;;13.95;6.38;;;;;;;-0.28;87.52;97753.66;2589974;28;20052;-78
2022/01/10 01:32:30;;;;;;;12.70;6.10;;;;;;;-0.31;87.44;97751.06;2590141;28;20117;-78
2022/01/10 01:33:45;;;;;;;9.05;5.13;;;;;;;-0.30;87.49;97748.53;2590166;28;20120;-78
2022/01/10 01:35:07;;;;;;;12.00;5.35;;;;;;;-0.32;87.75;97751.94;2590256;28;20049;-78
2022/01/10 01:36:25;;;;;;;10.02;5.40;;;;;;;-0.33;87.86;97755.34;2589900;28;20050;-77
2022/01/10 01:37:40;;;;;;;12.68;5.00;;;;;;;-0.32;87.97;97762.22;2590205;28;20079;-77
2022/01/10 01:38:57;;;;;;;7.68;4.63;;;;;;;-0.31;87.80;97761.38;2590151;28;20045;-77
2022/01/10 01:40:12;;;;;;;10.63;4.85;;;;;;;-0.30;88.00;97766.53;2590138;28;20088;-77
2022/01/10 01:42:47;;;;;;;12.40;5.07;;;;;;;-0.30;88.10;97765.66;2590120;28;20061;-77
2022/01/10 01:44:03;;;;;;;8.43;4.40;;;;;;;-0.27;88.14;97764.81;2589994;28;20099;-77
2022/01/10 01:45:34;;;;;;;11.27;4.53;;;;;;;-0.24;87.88;97767.41;2589461;28;20050;-77
2022/01/10 01:46:49;;;;;;;9.68;4.65;;;;;;;-0.25;87.96;97768.25;2589915;28;20133;-77
2022/01/10 01:48:06;;;;;;;9.93;5.00;;;;;;;-0.22;87.75;97764.00;2590243;28;20054;-77
2022/01/10 01:49:21;;;;;;;8.63;4.13;;;;;;;-0.19;87.79;97769.13;2590062;28;20528;-77
2022/01/10 01:50:37;;;;;;;10.55;4.60;;;;;;;-0.18;88.05;97762.28;2590052;28;20061;-77
2022/01/10 01:51:53;;;;;;;7.18;3.70;;;;;;;-0.21;87.85;97764.84;2590079;28;20417;-77
2022/01/10 01:53:09;;;;;;;7.68;3.88;;;;;;;-0.22;87.91;97774.28;2590049;28;20053;-77
2022/01/10 01:54:24;;;;;;;10.52;4.22;;;;;;;-0.23;88.00;97770.00;2590071;28;20560;-77
2022/01/10 01:55:40;;;;;;;10.43;4.28;;;;;;;-0.22;87.94;97769.13;2589645;28;20050;-77
2022/01/10 01:56:56;;;;;;;7.85;4.05;;;;;;;-0.21;87.90;97772.56;2589417;28;20092;-77
2022/01/10 01:58:12;;;;;;;7.90;3.75;;;;;;;-0.19;87.92;97773.44;2589483;28;20037;-77
2022/01/10 01:59:28;;;;;;;5.53;3.65;;;;;;;-0.20;87.95;97767.44;2590102;28;20463;-77
2022/01/10 02:00:43;;;;;;;7.93;3.63;;;;;;;-0.19;88.05;97773.44;2590075;28;20050;-78
2022/01/10 02:01:59;;;;;;;10.73;4.00;;;;;;;-0.20;87.97;97770.00;2589888;28;20539;-77
2022/01/10 02:03:14;;;;;;;7.57;3.88;;;;;;;-0.14;87.89;97779.47;2589317;28;20046;-77
2022/01/10 02:04:30;;;;;;;9.25;3.90;;;;;;;-0.11;87.81;97778.63;2589630;28;20056;-77
2022/01/10 02:05:46;;;;;;;6.50;3.40;;;;;;;-0.18;87.66;97778.56;2589747;28;20128;-77
2022/01/10 02:07:02;;;;;;;7.47;3.85;;;;;;;-0.19;87.51;97778.59;2589829;28;20050;-77
2022/01/10 02:08:18;;;;;;;8.15;4.10;;;;;;;-0.22;87.78;97779.44;2590039;28;20520;-78
2022/01/10 02:09:33;;;;;;;7.70;3.55;;;;;;;-0.22;87.86;97784.56;2589749;28;20115;-77
2022/01/10 02:10:49;;;;;;;7.38;3.72;;;;;;;-0.21;87.75;97780.28;2589895;28;20112;-77
2022/01/10 02:12:05;;;;;;;8.18;4.00;;;;;;;-0.19;87.68;97788.88;2590090;28;20046;-77
2022/01/10 02:13:21;;;;;;;6.18;3.50;;;;;;;-0.23;87.95;97788.00;2589847;28;20445;-77
2022/01/10 02:14:39;;;;;;;8.63;4.13;;;;;;;-0.23;87.89;97794.84;2589653;28;20493;-77
2022/01/10 02:16:01;;;;;;;7.88;4.38;;;;;;;-0.22;88.08;97791.41;2589990;28;20084;-77
2022/01/10 02:17:22;;;;;;;8.60;4.45;;;;;;;-0.23;87.87;97793.16;2589895;28;20477;-77
2022/01/10 02:18:37;;;;;;;10.20;4.97;;;;;;;-0.18;88.32;97795.75;2590045;28;20125;-77
2022/01/10 02:20:07;;;;;;;11.30;5.60;;;;;;;-0.20;88.35;97792.31;2590067;28;20478;-77
2022/01/10 02:21:23;;;;;;;10.13;5.15;;;;;;;-0.25;88.44;97799.13;2590040;28;20432;-77
2022/01/10 02:22:39;;;;;;;15.85;6.80;;;;;;;-0.30;88.68;97799.97;2589994;28;20133;-77
2022/01/10 02:23:57;;;;;;;14.90;7.10;;;;;;;-0.29;88.48;97805.97;2590096;28;20053;-76
2022/01/10 02:25:12;;;;;;;19.42;7.90;;;;;;;-0.32;88.74;97801.69;2589750;28;20095;-77
2022/01/10 02:26:28;;;;;;;17.83;7.53;;;;;;;-0.28;88.75;97794.81;2589658;28;20109;-77
2022/01/10 02:27:45;;;;;;;17.65;7.18;;;;;;;-0.25;88.53;97807.72;2589882;28;20052;-77
2022/01/10 02:29:01;;;;;;;13.60;7.20;;;;;;;-0.25;88.27;97807.72;2589851;28;20057;-77
2022/01/10 02:30:17;;;;;;;14.05;7.00;;;;;;;-0.25;88.16;97806.84;2589739;28;20042;-77
2022/01/10 02:31:38;;;;;;;16.20;7.75;;;;;;;-0.26;88.07;97810.28;2589753;28;20054;-77
2022/01/10 02:32:57;;;;;;;14.18;7.63;;;;;;;-0.27;88.19;97813.69;2590400;28;20054;-77
2022/01/10 02:34:18;;;;;;;14.95;8.00;;;;;;;-0.28;88.22;97812.81;2590921;28;20046;-77
2022/01/10 02:35:43;;;;;;;13.25;7.78;;;;;;;-0.28;88.17;97815.41;2591829;28;20061;-77
2022/01/10 02:37:00;;;;;;;17.55;7.90;;;;;;;-0.31;88.06;97816.25;2591492;28;20046;-77
2022/01/10 02:38:16;;;;;;;20.70;9.05;;;;;;;-0.34;88.17;97818.81;2591642;28;20512;-77
2022/01/10 02:39:32;;;;;;;20.58;8.85;;;;;;;-0.36;88.43;97817.94;2591699;28;20053;-77
2022/01/10 02:40:49;;;;;;;21.13;9.15;;;;;;;-0.39;88.63;97817.06;2591751;28;20148;-77
2022/01/10 02:42:04;;;;;;;18.10;8.90;;;;;;;-0.41;88.78;97821.34;2591640;28;20507;-77
2022/01/10 02:43:20;;;;;;;20.75;9.30;;;;;;;-0.44;88.74;97820.44;2591156;28;20049;-77
2022/01/10 02:44:36;;;;;;;15.27;8.00;;;;;;;-0.44;88.65;97817.88;2591565;28;20276;-77
2022/01/10 02:45:51;;;;;;;18.30;8.52;;;;;;;-0.41;88.44;97821.34;2591665;28;20104;-77
2022/01/10 02:47:07;;;;;;;17.25;7.90;;;;;;;-0.41;88.60;97826.50;2591346;28;20046;-76
2022/01/10 02:48:23;;;;;;;15.70;7.13;;;;;;;-0.44;88.84;97820.44;2591788;28;20057;-77
2022/01/10 02:49:38;;;;;;;17.20;7.18;;;;;;;-0.46;88.60;97823.88;2591593;28;20042;-77
2022/01/10 02:50:54;;;;;;;15.70;7.13;;;;;;;-0.47;88.92;97830.72;2591521;28;20061;-77
2022/01/10 02:52:10;;;;;;;13.10;6.60;;;;;;;-0.47;89.14;97825.59;2591717;28;20050;-77
2022/01/10 02:53:25;;;;;;;11.05;5.78;;;;;;;-0.47;88.98;97829.88;2590886;28;20049;-77
2022/01/10 02:54:42;;;;;;;13.07;5.78;;;;;;;-0.49;88.93;97836.72;2591524;28;20053;-77
2022/01/10 02:55:57;;;;;;;12.80;5.20;;;;;;;-0.52;89.03;97840.13;2591728;28;20045;-77
2022/01/10 02:57:13;;;;;;;10.13;5.35;;;;;;;-0.50;89.08;97840.13;2591054;28;20542;-77
2022/01/10 02:58:29;;;;;;;10.48;5.30;;;;;;;-0.50;89.11;97841.00;2591310;28;20049;-77
2022/01/10 02:59:44;;;;;;;11.25;5.10;;;;;;;-0.52;89.42;97850.44;2591569;28;20552;-77
2022/01/10 03:01:00;;;;;;;9.70;5.13;;;;;;;-0.53;89.49;97846.13;2591382;28;20054;-77
2022/01/10 03:02:20;;;;;;;11.07;4.90;;;;;;;-0.56;89.42;97846.09;2590869;28;20077;-76
2022/01/10 03:03:35;;;;;;;11.02;4.20;;;;;;;-0.56;89.48;97848.66;2591215;28;20054;-77
2022/01/10 03:04:51;;;;;;;9.77;4.50;;;;;;;-0.58;89.59;97845.22;2591430;28;20085;-77
2022/01/10 03:06:06;;;;;;;8.57;3.92;;;;;;;-0.57;89.72;97849.50;2591254;28;20077;-77
2022/01/10 03:07:23;;;;;;;8.98;4.20;;;;;;;-0.57;89.97;97852.09;2591241;28;20061;-77
2022/01/10 03:08:38;;;;;;;6.90;4.13;;;;;;;-0.57;90.00;97859.78;2591436;28;20042;-76
2022/01/10 03:09:54;;;;;;;8.70;4.05;;;;;;;-0.57;89.86;97850.38;2591506;28;20137;-77
2022/01/10 03:11:10;;;;;;;9.15;4.05;;;;;;;-0.57;89.94;97852.09;2590576;28;20077;-77
2022/01/10 03:12:28;;;;;;;9.95;4.35;;;;;;;-0.59;90.00;97852.09;2591069;28;20046;-77
2022/01/10 03:13:44;;;;;;;11.25;4.28;;;;;;;-0.53;89.94;97850.41;2590791;28;20054;-77
2022/01/10 03:15:00;;;;;;;10.80;4.72;;;;;;;-0.50;89.91;97858.13;2591203;28;20081;-77
2022/01/10 03:16:15;;;;;;;7.57;3.80;;;;;;;-0.49;89.85;97855.59;2591163;28;20045;-77
2022/01/10 03:17:31;;;;;;;9.73;4.75;;;;;;;-0.49;89.53;97858.16;2591140;28;20079;-77
2022/01/10 03:18:46;;;;;;;6.72;3.72;;;;;;;-0.47;89.57;97856.44;2591405;28;20050;-77
2022/01/10 03:20:05;;;;;;;8.52;4.07;;;;;;;-0.45;89.41;97859.88;2590811;28;20120;-77
2022/01/10 03:21:20;;;;;;;8.82;4.22;;;;;;;-0.44;89.39;97864.19;2591190;28;20100;-77
2022/01/10 03:22:36;;;;;;;7.07;3.70;;;;;;;-0.43;89.18;97865.91;2591295;28;20050;-77
2022/01/10 03:23:52;;;;;;;7.53;4.15;;;;;;;-0.44;89.23;97863.34;2590978;28;20053;-77
2022/01/10 03:25:08;;;;;;;7.45;3.90;;;;;;;-0.45;89.10;97865.03;2591262;28;20046;-77
2022/01/10 03:26:26;;;;;;;12.45;4.50;;;;;;;-0.43;89.14;97865.91;2590993;28;20519;-77
2022/01/10 03:27:42;;;;;;;9.30;4.65;;;;;;;-0.46;89.35;97868.44;2591259;28;20099;-77
2022/01/10 03:28:58;;;;;;;11.73;4.20;;;;;;;-0.45;89.50;97870.16;2591119;28;20460;-77
2022/01/10 03:30:15;;;;;;;7.30;4.07;;;;;;;-0.38;89.09;97868.50;2591034;28;20057;-77
2022/01/10 03:31:31;;;;;;;10.27;4.93;;;;;;;-0.44;89.16;97871.88;2591065;28;20116;-77
2022/01/10 03:32:50;;;;;;;9.15;4.95;;;;;;;-0.43;89.20;97877.91;2591153;28;20099;-77
2022/01/10 03:34:10;;;;;;;11.52;5.07;;;;;;;-0.43;88.96;97880.47;2590909;28;20076;-77
2022/01/10 03:35:26;;;;;;;11.13;4.30;;;;;;;-0.41;89.00;97880.50;2591310;28;20496;-77
2022/01/10 03:36:43;;;;;;;12.15;5.45;;;;;;;-0.40;88.76;97877.09;2590945;28;20069;-77
2022/01/10 03:37:58;;;;;;;8.98;4.60;;;;;;;-0.43;88.63;97881.31;2591221;28;20098;-77
2022/01/10 03:39:14;;;;;;;10.15;5.47;;;;;;;-0.45;88.82;97883.03;2591022;28;20050;-77
2022/01/10 03:40:30;;;;;;;13.27;6.03;;;;;;;-0.45;88.66;97884.75;2591077;28;20053;-77
2022/01/10 03:41:46;;;;;;;9.07;5.05;;;;;;;-0.46;88.70;97885.63;2591138;28;20125;-77
2022/01/10 03:43:02;;;;;;;11.05;5.35;;;;;;;-0.51;88.88;97879.56;2590517;28;20072;-77
2022/01/10 03:44:18;;;;;;;12.27;5.80;;;;;;;-0.55;89.10;97888.09;2590727;28;20104;-77
2022/01/10 03:45:33;;;;;;;9.98;5.60;;;;;;;-0.56;89.10;97887.22;2591048;28;20054;-77
2022/01/10 03:46:49;;;;;;;9.45;5.28;;;;;;;-0.57;89.18;97888.09;2590640;28;20045;-78
2022/01/10 03:48:05;;;;;;;11.55;5.53;;;;;;;-0.59;89.45;97892.34;2591021;28;20058;-78
2022/01/10 03:49:20;;;;;;;12.05;5.60;;;;;;;-0.61;89.59;97891.50;2591132;28;20101;-77
2022/01/10 03:50:36;;;;;;;10.55;5.05;;;;;;;-0.65;89.77;97894.88;2590944;28;20060;-77
2022/01/10 03:51:52;;;;;;;9.07;4.68;;;;;;;-0.64;89.87;97896.63;2591009;28;20475;-77
2022/01/10 03:53:07;;;;;;;9.63;4.57;;;;;;;-0.67;89.88;97900.00;2590306;28;20056;-77
2022/01/10 03:54:23;;;;;;;11.05;5.30;;;;;;;-0.68;89.90;97895.72;2590814;28;20054;-77
2022/01/10 03:55:39;;;;;;;12.05;5.20;;;;;;;-0.65;89.88;97900.88;2590949;28;20050;-77
2022/01/10 03:56:54;;;;;;;9.80;4.55;;;;;;;-0.64;89.94;97904.31;2590491;28;20079;-77
2022/01/10 03:58:10;;;;;;;14.60;5.40;;;;;;;-0.65;89.86;97902.59;2591050;28;20519;-77
2022/01/10 03:59:26;;;;;;;12.65;4.70;;;;;;;-0.65;89.92;97902.59;2590942;28;20053;-77
2022/01/10 04:00:41;;;;;;;10.20;5.05;;;;;;;-0.65;89.75;97903.44;2590415;28;20050;-77
2022/01/10 04:01:57;;;;;;;12.93;4.63;;;;;;;-0.65;89.75;97906.03;2590677;28;20124;-77
2022/01/10 04:03:13;;;;;;;9.98;4.70;;;;;;;-0.62;89.72;97912.91;2590836;28;20077;-77
2022/01/10 04:04:28;;;;;;;9.57;4.45;;;;;;;-0.61;89.59;97918.06;2590964;28;20042;-77
2022/01/10 04:05:44;;;;;;;7.65;4.60;;;;;;;-0.59;89.63;97918.94;2590813;28;20483;-77
2022/01/10 04:06:59;;;;;;;10.95;5.13;;;;;;;-0.58;89.59;97920.66;2589808;28;20130;-77
2022/01/10 04:08:15;;;;;;;7.88;4.57;;;;;;;-0.55;89.64;97917.25;2590405;28;20049;-77
2022/01/10 04:09:31;;;;;;;8.80;4.35;;;;;;;-0.53;89.41;97923.28;2590656;28;20042;-77
2022/01/10 04:10:47;;;;;;;8.38;4.50;;;;;;;-0.51;89.40;97925.84;2590394;28;20084;-77
2022/01/10 04:12:03;;;;;;;11.10;4.70;;;;;;;-0.54;89.44;97920.69;2590591;28;20038;-77
2022/01/10 04:13:18;;;;;;;12.80;4.95;;;;;;;-0.55;89.50;97926.69;2590573;28;20481;-77
2022/01/10 04:14:34;;;;;;;11.60;4.55;;;;;;;-0.55;89.54;97929.25;2590342;28;20115;-77
2022/01/10 04:15:50;;;;;;;10.68;4.85;;;;;;;-0.57;89.48;97935.25;2590444;28;20054;-77
2022/01/10 04:17:05;;;;;;;12.43;5.07;;;;;;;-0.57;89.70;97934.38;2590241;28;20080;-77
2022/01/10 04:18:21;;;;;;;12.15;4.72;;;;;;;-0.58;89.62;97935.22;2590553;28;20045;-77
2022/01/10 04:19:37;;;;;;;8.15;4.72;;;;;;;-0.55;89.67;97937.84;2590388;28;20087;-77
2022/01/10 04:20:53;;;;;;;9.70;4.20;;;;;;;-0.54;89.51;97936.97;2590557;28;20053;-78
2022/01/10 04:22:08;;;;;;;13.52;4.85;;;;;;;-0.57;89.76;97937.81;2587848;28;20053;-77
2022/01/10 04:23:24;;;;;;;9.65;4.47;;;;;;;-0.58;89.67;97950.66;2589898;28;20582;-77
2022/01/10 04:24:39;;;;;;;9.57;4.70;;;;;;;-0.59;89.74;97938.63;2590371;28;20046;-77
2022/01/10 04:25:55;;;;;;;10.43;5.10;;;;;;;-0.59;89.54;97944.66;2590159;28;20050;-77
2022/01/10 04:27:10;;;;;;;10.10;4.55;;;;;;;-0.58;89.64;97940.34;2589737;28;20057;-77
2022/01/10 04:28:26;;;;;;;10.98;5.32;;;;;;;-0.54;89.55;97949.84;2589916;28;20121;-77
2022/01/10 04:29:42;;;;;;;8.25;4.45;;;;;;;-0.51;89.38;97952.44;2590409;28;20046;-77
2022/01/10 04:30:57;;;;;;;9.40;4.60;;;;;;;-0.50;89.07;97954.16;2590355;28;20481;-78
2022/01/10 04:32:13;;;;;;;9.60;4.50;;;;;;;-0.48;89.19;97952.44;2590499;28;20050;-78
2022/01/10 04:33:30;;;;;;;8.50;4.47;;;;;;;-0.46;89.05;97953.31;2590632;28;20053;-77
2022/01/10 04:34:47;;;;;;;8.15;4.60;;;;;;;-0.43;89.10;97957.63;2590679;28;20538;-77
2022/01/10 04:36:04;;;;;;;9.93;5.15;;;;;;;-0.41;88.87;97958.50;2590301;28;20089;-77
2022/01/10 04:37:19;;;;;;;10.43;4.90;;;;;;;-0.41;88.88;97961.09;2590307;28;20049;-77
2022/01/10 04:38:35;;;;;;;8.40;4.50;;;;;;;-0.43;88.79;97961.06;2590657;28;20120;-77
2022/01/10 04:39:51;;;;;;;11.63;4.50;;;;;;;-0.42;88.79;97959.34;2590605;28;20065;-77
2022/01/10 04:41:07;;;;;;;9.32;4.40;;;;;;;-0.45;88.69;97960.19;2590212;28;20073;-77
2022/01/10 04:42:22;;;;;;;8.70;4.50;;;;;;;-0.48;88.80;97967.88;2590490;28;20056;-77
2022/01/10 04:43:38;;;;;;;12.70;5.25;;;;;;;-0.52;89.02;97963.56;2590484;28;20049;-77
2022/01/10 04:44:54;;;;;;;8.50;4.80;;;;;;;-0.53;88.95;97969.56;2590080;28;20420;-77
2022/01/10 04:46:10;;;;;;;8.07;4.47;;;;;;;-0.55;88.98;97966.13;2589872;28;20045;-77
2022/01/10 04:47:25;;;;;;;11.68;5.30;;;;;;;-0.53;88.96;97968.69;2590121;28;20049;-77
2022/01/10 04:48:41;;;;;;;8.82;5.00;;;;;;;-0.52;89.41;97971.28;2590457;28;20042;-82
2022/01/10 04:51:21;;;;;;;9.10;4.55;;;;;;;-0.57;89.10;97988.34;2590459;28;20101;-77
2022/01/10 04:52:37;;;;;;;7.93;4.15;;;;;;;-0.61;89.30;97984.03;2590462;28;20432;-77
2022/01/10 04:53:53;;;;;;;9.48;4.90;;;;;;;-0.63;89.34;97978.91;2590177;28;20128;-77
2022/01/10 04:55:09;;;;;;;11.57;5.00;;;;;;;-0.61;89.62;97984.03;2590134;28;20042;-77
2022/01/10 04:56:24;;;;;;;12.77;5.45;;;;;;;-0.59;89.42;97990.06;2589092;28;20050;-77
2022/01/10 04:57:40;;;;;;;8.82;5.00;;;;;;;-0.58;89.35;97981.50;2586819;28;20064;-77
2022/01/10 04:58:56;;;;;;;14.05;5.10;;;;;;;-0.54;89.20;97990.09;2588403;28;20073;-77
2022/01/10 05:00:14;;;;;;;12.00;5.18;;;;;;;-0.54;89.26;97993.56;2590391;28;20053;-77
2022/01/10 05:01:29;;;;;;;10.80;5.32;;;;;;;-0.53;89.20;97991.84;2589718;28;20100;-77
2022/01/10 05:02:47;;;;;;;15.38;5.80;;;;;;;-0.52;89.13;97996.13;2590362;28;20096;-77
2022/01/10 05:04:07;;;;;;;10.65;5.45;;;;;;;-0.51;89.10;97996.16;2589723;28;20161;-79
2022/01/10 05:05:22;;;;;;;11.20;5.55;;;;;;;-0.51;89.07;98001.28;2589766;28;20038;-78
2022/01/10 05:06:38;;;;;;;10.73;5.32;;;;;;;-0.51;88.92;98006.44;2590228;28;20046;-75
2022/01/10 05:07:53;;;;;;;9.57;5.13;;;;;;;-0.51;89.18;98009.00;2590065;28;20058;-75
2022/01/10 05:09:09;;;;;;;13.35;5.40;;;;;;;-0.53;89.04;98003.00;2590247;28;20488;-78
2022/01/10 05:10:25;;;;;;;11.23;5.18;;;;;;;-0.51;89.00;98005.56;2590426;28;20400;-75
2022/01/10 05:11:40;;;;;;;8.90;5.00;;;;;;;-0.50;88.94;98010.72;2590137;28;20141;-78
2022/01/10 05:12:56;;;;;;;10.75;5.20;;;;;;;-0.47;88.78;98012.47;2590227;28;20096;-75
2022/01/10 05:14:12;;;;;;;9.27;5.13;;;;;;;-0.46;88.84;98019.34;2589945;28;20056;-76
2022/01/10 05:15:28;;;;;;;10.45;4.95;;;;;;;-0.45;88.81;98021.06;2590129;28;20488;-78
2022/01/10 05:16:44;;;;;;;8.35;4.50;;;;;;;-0.43;88.79;98017.63;2590069;28;20053;-76
2022/01/10 05:18:00;;;;;;;11.77;4.88;;;;;;;-0.40;88.73;98018.53;2590062;28;20077;-78
2022/01/10 05:19:15;;;;;;;9.85;4.50;;;;;;;-0.37;88.75;98027.13;2590323;28;20463;-78
2022/01/10 05:20:31;;;;;;;9.48;4.88;;;;;;;-0.37;88.95;98028.84;2590443;28;20045;-78
2022/01/10 05:21:47;;;;;;;11.07;4.57;;;;;;;-0.35;88.55;98024.56;2590217;28;20064;-78
2022/01/10 05:23:02;;;;;;;9.18;4.53;;;;;;;-0.35;88.61;98032.28;2590006;28;20466;-75
2022/01/10 05:24:18;;;;;;;9.30;4.90;;;;;;;-0.33;88.62;98031.47;2589838;28;20038;-76
2022/01/10 05:25:36;;;;;;;10.68;4.57;;;;;;;-0.34;88.40;98031.44;2589744;28;20093;-78
2022/01/10 05:26:52;;;;;;;11.30;4.63;;;;;;;-0.34;88.46;98039.16;2589768;28;20054;-79
2022/01/10 05:28:13;;;;;;;10.68;5.60;;;;;;;-0.33;88.79;98043.47;2589781;28;20412;-77
2022/01/10 05:29:28;;;;;;;11.13;4.57;;;;;;;-0.34;88.38;98041.72;2589517;28;20089;-77
2022/01/10 05:30:45;;;;;;;11.07;6.25;;;;;;;-0.36;88.50;98043.44;2589641;28;20108;-77
2022/01/10 05:32:01;;;;;;;13.32;6.10;;;;;;;-0.35;88.60;98042.59;2589472;28;20088;-77
2022/01/10 05:33:17;;;;;;;9.07;5.57;;;;;;;-0.33;88.42;98043.47;2589886;28;20057;-76
2022/01/10 05:34:33;;;;;;;11.82;6.30;;;;;;;-0.33;88.42;98046.03;2590084;28;20065;-77
2022/01/10 05:35:48;;;;;;;12.82;6.80;;;;;;;-0.24;88.19;98050.38;2590096;28;20503;-77
2022/01/10 05:37:04;;;;;;;13.68;6.00;;;;;;;-0.35;88.40;98046.03;2589764;28;20081;-77
2022/01/10 05:38:19;;;;;;;14.73;6.47;;;;;;;-0.40;88.60;98050.25;2590141;28;20081;-76
2022/01/10 05:39:35;;;;;;;11.52;5.88;;;;;;;-0.47;88.74;98056.19;2590159;28;20076;-77
2022/01/10 05:40:50;;;;;;;14.07;5.82;;;;;;;-0.42;88.71;98057.09;2590008;28;20181;-77
2022/01/10 05:42:06;;;;;;;15.35;6.07;;;;;;;-0.38;88.45;98058.00;2590051;28;20548;-77
2022/01/10 05:43:22;;;;;;;11.35;5.60;;;;;;;-0.37;88.20;98058.00;2590119;28;20523;-76
2022/01/10 05:44:37;;;;;;;8.95;5.43;;;;;;;-0.48;88.75;98060.47;2590212;28;20058;-77
2022/01/10 05:45:53;;;;;;;15.20;6.35;;;;;;;-0.44;88.70;98058.78;2589984;28;20046;-78
2022/01/10 05:47:09;;;;;;;12.18;5.80;;;;;;;-0.46;88.79;98065.63;2590104;28;20128;-77
2022/01/10 05:48:26;;;;;;;10.27;5.35;;;;;;;-0.45;88.62;98073.34;2590091;28;20821;-77
2022/01/10 05:49:47;;;;;;;14.35;5.78;;;;;;;-0.45;88.62;98073.34;2590122;28;20394;-77
2022/01/10 05:51:03;;;;;;;10.73;5.35;;;;;;;-0.44;88.58;98069.94;2590028;28;20050;-77
2022/01/10 05:52:19;;;;;;;10.80;5.30;;;;;;;-0.44;88.56;98075.06;2590151;28;20502;-77
2022/01/10 05:53:34;;;;;;;12.82;5.30;;;;;;;-0.44;88.84;98084.50;2589907;28;20058;-76
2022/01/10 05:54:50;;;;;;;10.93;5.22;;;;;;;-0.45;88.65;98082.78;2589933;28;20045;-77
2022/01/10 05:56:06;;;;;;;8.60;4.70;;;;;;;-0.44;88.73;98082.78;2590036;28;20046;-76
2022/01/10 05:57:21;;;;;;;12.55;5.13;;;;;;;-0.43;88.62;98081.94;2589116;28;20057;-77
2022/01/10 05:58:37;;;;;;;9.75;5.20;;;;;;;-0.43;88.60;98091.38;2589319;28;20046;-77
2022/01/10 05:59:52;;;;;;;11.10;5.28;;;;;;;-0.43;88.77;98089.66;2589877;28;20046;-77
2022/01/10 06:01:08;;;;;;;10.35;5.28;;;;;;;-0.41;88.72;98093.97;2589712;28;20053;-77
2022/01/10 06:02:24;;;;;;;10.35;5.32;;;;;;;-0.43;88.68;98099.94;2589764;28;20050;-77
2022/01/10 06:03:39;;;;;;;11.88;4.97;;;;;;;-0.48;88.71;98096.47;2590037;28;20049;-77
2022/01/10 06:04:57;;;;;;;11.43;5.25;;;;;;;-0.50;89.11;98098.16;2590178;28;20155;-77
2022/01/10 06:06:12;;;;;;;10.85;5.85;;;;;;;-0.49;89.29;98099.88;2590023;28;20046;-77
2022/01/10 06:07:28;;;;;;;11.82;5.80;;;;;;;-0.49;89.21;98099.00;2591513;28;20045;-77
2022/01/10 06:08:44;;;;;;;12.82;6.15;;;;;;;-0.53;89.18;98095.56;2592082;28;20068;-77
2022/01/10 06:09:59;;;;;;;16.75;6.75;;;;;;;-0.49;89.65;98099.88;2591965;28;20057;-77
2022/01/10 06:11:15;;;;;;;20.33;8.90;;;;;;;-0.48;89.05;98104.19;2592076;28;20053;-77